sensor_id;sensor_type;location;lat;lon;timestamp;P1;durP1;ratioP1;P2;durP2;ratioP2
40048;SDS011;54524;55.740;37.544;2024-02-28T00:01:03;6.30;;;1.20;;
40048;SDS011;54524;55.740;37.544;2024-02-28T00:02:04;8.3;;;5;;
40048;SDS011;54524;55.740;37.544;2024-02-28T00:03:04;8.3;;;5;;
40048;SDS011;54524;55.740;37.544;2024-02-28T00:04:05;8.1;;;5.1;;
40048;SDS011;54524;55.740;37.544;2024-02-28T00:05:05;8.1;;;5.1;;
40048;SDS011;54524;55.740;37.544;2024-02-28T00:06:06;8.1;;;5.2;;
40048;SDS011;54524;55.740;37.544;2024-02-28T00:07:07;9.1;;;4.7;;
40048;SDS011;54524;55.740;37.544;2024-02-28T00:08:07;8.9;;;4.6;;
40048;SDS011;54524;55.740;37.544;2024-02-28T00:09:08;8.9;;;4.6;;
40048;SDS011;54524;55.740;37.544;2024-02-28T00:11:03;8.8;;;4.6;;
40048;SDS011;54524;55.740;37.544;2024-02-28T00:12:04;8.9;;;4.7;;
40048;SDS011;54524;55.740;37.544;2024-02-28T00:13:04;7.5;;;4.6;;
40048;SDS011;54524;55.740;37.544;2024-02-28T00:14:05;8.1;;;4.6;;
40048;SDS011;54524;55.740;37.544;2024-02-28T00:15:06;8.9;;;4.6;;
40048;SDS011;54524;55.740;37.544;2024-02-28T00:16:10;8.4;;;4.8;;
40048;SDS011;54524;55.740;37.544;2024-02-28T00:17:11;8.4;;;4.8;;
40048;SDS011;54524;55.740;37.544;2024-02-28T00:18:12;8.4;;;4.8;;
40048;SDS011;54524;55.740;37.544;2024-02-28T00:19:12;7.5;;;4.9;;
40048;SDS011;54524;55.740;37.544;2024-02-28T00:21:03;7.8;;;5;;
40048;SDS011;54524;55.740;37.544;2024-02-28T00:22:04;9.4;;;4.9;;
40048;SDS011;54524;55.740;37.544;2024-02-28T00:23:04;9.6;;;4.9;;
40048;SDS011;54524;55.740;37.544;2024-02-28T00:24:05;9.9;;;5;;
40048;SDS011;54524;55.740;37.544;2024-02-28T00:25:06;8.7;;;4.4;;
40048;SDS011;54524;55.740;37.544;2024-02-28T00:26:06;8.6;;;4.4;;
40048;SDS011;54524;55.740;37.544;2024-02-28T00:27:07;8.6;;;4.4;;
40048;SDS011;54524;55.740;37.544;2024-02-28T00:28:08;8.9;;;4.8;;
40048;SDS011;54524;55.740;37.544;2024-02-28T00:29:08;9;;;4.8;;
40048;SDS011;54524;55.740;37.544;2024-02-28T00:31:04;6.30;;;1.20;;
40048;SDS011;54524;55.740;37.544;2024-02-28T00:32:05;8.7;;;4.9;;
40048;SDS011;54524;55.740;37.544;2024-02-28T00:33:05;8.9;;;4.9;;
40048;SDS011;54524;55.740;37.544;2024-02-28T00:34:06;8.9;;;4.9;;
40048;SDS011;54524;55.740;37.544;2024-02-28T00:35:08;8.4;;;5.2;;
40048;SDS011;54524;55.740;37.544;2024-02-28T00:36:09;8.1;;;5.3;;
40048;SDS011;54524;55.740;37.544;2024-02-28T00:37:10;8.7;;;5.3;;
40048;SDS011;54524;55.740;37.544;2024-02-28T00:38:10;10;;;5.2;;
40048;SDS011;54524;55.740;37.544;2024-02-28T00:39:11;10.1;;;5.3;;
40048;SDS011;54524;55.740;37.544;2024-02-28T00:41:04;8.1;;;4.9;;
40048;SDS011;54524;55.740;37.544;2024-02-28T00:42:04;8;;;4.8;;
40048;SDS011;54524;55.740;37.544;2024-02-28T00:43:05;7.9;;;4.7;;
40048;SDS011;54524;55.740;37.544;2024-02-28T00:44:05;0;;;0;;
40048;SDS011;54524;55.740;37.544;2024-02-28T00:45:07;9.9;;;5.1;;
40048;SDS011;54524;55.740;37.544;2024-02-28T00:46:08;10.2;;;5.1;;
40048;SDS011;54524;55.740;37.544;2024-02-28T00:47:12;8.7;;;5.2;;
40048;SDS011;54524;55.740;37.544;2024-02-28T00:48:12;8.8;;;5.2;;
40048;SDS011;54524;55.740;37.544;2024-02-28T00:49:13;8.6;;;5.2;;
40048;SDS011;54524;55.740;37.544;2024-02-28T00:51:03;9.2;;;4.9;;
40048;SDS011;54524;55.740;37.544;2024-02-28T00:52:04;9.1;;;4.8;;
40048;SDS011;54524;55.740;37.544;2024-02-28T00:53:05;8.4;;;5.4;;
40048;SDS011;54524;55.740;37.544;2024-02-28T00:54:05;8.4;;;5.4;;
40048;SDS011;54524;55.740;37.544;2024-02-28T00:55:06;8.3;;;5.4;;
40048;SDS011;54524;55.740;37.544;2024-02-28T00:56:07;9.4;;;5.2;;
40048;SDS011;54524;55.740;37.544;2024-02-28T00:57:08;9.4;;;5.2;;
40048;SDS011;54524;55.740;37.544;2024-02-28T00:58:08;8.7;;;5;;
40048;SDS011;54524;55.740;37.544;2024-02-28T00:59:09;8.6;;;4.9;;
40048;SDS011;54524;55.740;37.544;2024-02-28T01:01:05;9.2;;;4.8;;
40048;SDS011;54524;55.740;37.544;2024-02-28T01:02:05;9.4;;;4.9;;
40048;SDS011;54524;55.740;37.544;2024-02-28T01:03:06;9.8;;;5.2;;
40048;SDS011;54524;55.740;37.544;2024-02-28T01:04:09;9.5;;;5.1;;
40048;SDS011;54524;55.740;37.544;2024-02-28T01:05:09;9.9;;;5;;
40048;SDS011;54524;55.740;37.544;2024-02-28T01:06:10;9.5;;;4.9;;
40048;SDS011;54524;55.740;37.544;2024-02-28T01:07:10;9.4;;;4.9;;
40048;SDS011;54524;55.740;37.544;2024-02-28T01:08:11;8.9;;;4.9;;
40048;SDS011;54524;55.740;37.544;2024-02-28T01:09:12;8.9;;;4.9;;
40048;SDS011;54524;55.740;37.544;2024-02-28T01:11:03;10.1;;;5.3;;
40048;SDS011;54524;55.740;37.544;2024-02-28T01:12:04;10.3;;;5.3;;
40048;SDS011;54524;55.740;37.544;2024-02-28T01:13:04;8.4;;;5;;
40048;SDS011;54524;55.740;37.544;2024-02-28T01:14:05;8.4;;;5;;
40048;SDS011;54524;55.740;37.544;2024-02-28T01:15:05;8.3;;;5;;
40048;SDS011;54524;55.740;37.544;2024-02-28T01:16:06;8.4;;;5.1;;
40048;SDS011;54524;55.740;37.544;2024-02-28T01:17:07;8.5;;;5.1;;
40048;SDS011;54524;55.740;37.544;2024-02-28T01:18:07;8.6;;;5.2;;
40048;SDS011;54524;55.740;37.544;2024-02-28T01:19:08;9.1;;;5;;
40048;SDS011;54524;55.740;37.544;2024-02-28T01:21:03;8.9;;;5;;
40048;SDS011;54524;55.740;37.544;2024-02-28T01:22:04;8;;;5.1;;
40048;SDS011;54524;55.740;37.544;2024-02-28T01:23:04;8.1;;;5.1;;
40048;SDS011;54524;55.740;37.544;2024-02-28T01:24:05;8.2;;;5.1;;
40048;SDS011;54524;55.740;37.544;2024-02-28T01:25:06;9.9;;;5;;
40048;SDS011;54524;55.740;37.544;2024-02-28T01:26:06;9.9;;;5;;
40048;SDS011;54524;55.740;37.544;2024-02-28T01:27:07;9.8;;;5;;
40048;SDS011;54524;55.740;37.544;2024-02-28T01:28:07;7.9;;;5.2;;
40048;SDS011;54524;55.740;37.544;2024-02-28T01:29:08;7.9;;;5.2;;
40048;SDS011;54524;55.740;37.544;2024-02-28T01:31:04;9.8;;;5.4;;
40048;SDS011;54524;55.740;37.544;2024-02-28T01:32:06;10.1;;;5.4;;
40048;SDS011;54524;55.740;37.544;2024-02-28T01:33:07;9.7;;;5.4;;
40048;SDS011;54524;55.740;37.544;2024-02-28T01:34:07;10.9;;;5.2;;
40048;SDS011;54524;55.740;37.544;2024-02-28T01:35:08;11;;;5.2;;
40048;SDS011;54524;55.740;37.544;2024-02-28T01:36:10;11;;;5.3;;
40048;SDS011;54524;55.740;37.544;2024-02-28T01:37:11;10.6;;;5.4;;
40048;SDS011;54524;55.740;37.544;2024-02-28T01:38:12;10.5;;;5.3;;
40048;SDS011;54524;55.740;37.544;2024-02-28T01:39:12;10.6;;;5.4;;
40048;SDS011;54524;55.740;37.544;2024-02-28T01:41:03;8;;;5.4;;
40048;SDS011;54524;55.740;37.544;2024-02-28T01:42:05;8;;;5.3;;
40048;SDS011;54524;55.740;37.544;2024-02-28T01:43:06;8;;;5.3;;
40048;SDS011;54524;55.740;37.544;2024-02-28T01:44:07;10.9;;;5.4;;
40048;SDS011;54524;55.740;37.544;2024-02-28T01:45:08;10.9;;;5.3;;
40048;SDS011;54524;55.740;37.544;2024-02-28T01:46:14;10.4;;;5.4;;
40048;SDS011;54524;55.740;37.544;2024-02-28T01:47:20;10.4;;;5.3;;
40048;SDS011;54524;55.740;37.544;2024-02-28T01:48:20;10.2;;;5.3;;
40048;SDS011;54524;55.740;37.544;2024-02-28T01:49:21;10.2;;;5.3;;
40048;SDS011;54524;55.740;37.544;2024-02-28T01:51:03;9.9;;;5.4;;
40048;SDS011;54524;55.740;37.544;2024-02-28T01:52:04;10.1;;;5.3;;
40048;SDS011;54524;55.740;37.544;2024-02-28T01:53:05;9.9;;;5.8;;
40048;SDS011;54524;55.740;37.544;2024-02-28T01:54:06;9.8;;;5.8;;
40048;SDS011;54524;55.740;37.544;2024-02-28T01:55:07;9.4;;;5.7;;
40048;SDS011;54524;55.740;37.544;2024-02-28T01:56:09;8.8;;;5.5;;
40048;SDS011;54524;55.740;37.544;2024-02-28T01:57:10;9.1;;;5.5;;
40048;SDS011;54524;55.740;37.544;2024-02-28T01:58:11;9.2;;;5.5;;
40048;SDS011;54524;55.740;37.544;2024-02-28T01:59:12;12.5;;;5.7;;
40048;SDS011;54524;55.740;37.544;2024-02-28T02:01:04;6.30;;;1.20;;
40048;SDS011;54524;55.740;37.544;2024-02-28T02:02:06;10.8;;;6.5;;
40048;SDS011;54524;55.740;37.544;2024-02-28T02:03:07;10.6;;;6.4;;
40048;SDS011;54524;55.740;37.544;2024-02-28T02:04:08;10.5;;;6.3;;
40048;SDS011;54524;55.740;37.544;2024-02-28T02:05:08;11.9;;;6.1;;
40048;SDS011;54524;55.740;37.544;2024-02-28T02:06:09;11.6;;;6;;
40048;SDS011;54524;55.740;37.544;2024-02-28T02:07:10;11.8;;;6;;
40048;SDS011;54524;55.740;37.544;2024-02-28T02:08:10;11.8;;;6;;
40048;SDS011;54524;55.740;37.544;2024-02-28T02:09:11;11.9;;;6.3;;
40048;SDS011;54524;55.740;37.544;2024-02-28T02:11:03;11.5;;;6.3;;
40048;SDS011;54524;55.740;37.544;2024-02-28T02:12:04;11.5;;;6.3;;
40048;SDS011;54524;55.740;37.544;2024-02-28T02:13:04;8.5;;;5.5;;
40048;SDS011;54524;55.740;37.544;2024-02-28T02:14:05;8.9;;;5.5;;
40048;SDS011;54524;55.740;37.544;2024-02-28T02:15:05;8.9;;;5.6;;
40048;SDS011;54524;55.740;37.544;2024-02-28T02:16:06;13.7;;;6.5;;
40048;SDS011;54524;55.740;37.544;2024-02-28T02:17:07;13.8;;;6.5;;
40048;SDS011;54524;55.740;37.544;2024-02-28T02:18:07;13.6;;;6.5;;
40048;SDS011;54524;55.740;37.544;2024-02-28T02:19:08;21.7;;;15.2;;
40048;SDS011;54524;55.740;37.544;2024-02-28T02:21:04;21.8;;;15.2;;
40048;SDS011;54524;55.740;37.544;2024-02-28T02:22:07;17.1;;;11.5;;
40048;SDS011;54524;55.740;37.544;2024-02-28T02:23:08;16.8;;;11.4;;
40048;SDS011;54524;55.740;37.544;2024-02-28T02:24:09;16.8;;;11.3;;
40048;SDS011;54524;55.740;37.544;2024-02-28T02:25:09;12.2;;;8.3;;
40048;SDS011;54524;55.740;37.544;2024-02-28T02:26:10;12;;;8.3;;
40048;SDS011;54524;55.740;37.544;2024-02-28T02:27:10;12.1;;;8.4;;
40048;SDS011;54524;55.740;37.544;2024-02-28T02:28:11;11.5;;;6.7;;
40048;SDS011;54524;55.740;37.544;2024-02-28T02:29:11;11.5;;;6.7;;
40048;SDS011;54524;55.740;37.544;2024-02-28T02:31:04;11.7;;;6.9;;
40048;SDS011;54524;55.740;37.544;2024-02-28T02:32:05;11.5;;;6;;
40048;SDS011;54524;55.740;37.544;2024-02-28T02:33:06;11.1;;;6;;
40048;SDS011;54524;55.740;37.544;2024-02-28T02:34:06;10.9;;;6;;
40048;SDS011;54524;55.740;37.544;2024-02-28T02:35:07;11.1;;;6.1;;
40048;SDS011;54524;55.740;37.544;2024-02-28T02:36:08;11.4;;;6.1;;
40048;SDS011;54524;55.740;37.544;2024-02-28T02:37:08;11.4;;;6.1;;
40048;SDS011;54524;55.740;37.544;2024-02-28T02:38:09;10.6;;;5.6;;
40048;SDS011;54524;55.740;37.544;2024-02-28T02:39:09;10.8;;;5.7;;
40048;SDS011;54524;55.740;37.544;2024-02-28T02:41:03;11.4;;;6.1;;
40048;SDS011;54524;55.740;37.544;2024-02-28T02:42:04;11.4;;;6;;
40048;SDS011;54524;55.740;37.544;2024-02-28T02:43:05;11.4;;;6;;
40048;SDS011;54524;55.740;37.544;2024-02-28T02:44:05;11.4;;;6.1;;
40048;SDS011;54524;55.740;37.544;2024-02-28T02:45:06;11.7;;;6.6;;
40048;SDS011;54524;55.740;37.544;2024-02-28T02:46:06;11.5;;;6.5;;
40048;SDS011;54524;55.740;37.544;2024-02-28T02:47:07;11.5;;;6.5;;
40048;SDS011;54524;55.740;37.544;2024-02-28T02:48:07;11.9;;;6.5;;
40048;SDS011;54524;55.740;37.544;2024-02-28T02:49:08;11;;;6.2;;
40048;SDS011;54524;55.740;37.544;2024-02-28T02:51:03;11.3;;;6.1;;
40048;SDS011;54524;55.740;37.544;2024-02-28T02:52:04;11.6;;;5.5;;
40048;SDS011;54524;55.740;37.544;2024-02-28T02:53:06;11.5;;;5.6;;
40048;SDS011;54524;55.740;37.544;2024-02-28T02:54:07;11.4;;;5.6;;
40048;SDS011;54524;55.740;37.544;2024-02-28T02:55:08;12;;;6.1;;
40048;SDS011;54524;55.740;37.544;2024-02-28T02:56:08;12.2;;;6.1;;
40048;SDS011;54524;55.740;37.544;2024-02-28T02:57:09;13.1;;;6.1;;
40048;SDS011;54524;55.740;37.544;2024-02-28T02:58:10;13.1;;;6.1;;
40048;SDS011;54524;55.740;37.544;2024-02-28T02:59:10;11.2;;;5.6;;
40048;SDS011;54524;55.740;37.544;2024-02-28T03:01:06;11.1;;;5.7;;
40048;SDS011;54524;55.740;37.544;2024-02-28T03:02:06;11.1;;;5.8;;
40048;SDS011;54524;55.740;37.544;2024-02-28T03:03:07;11.2;;;5.4;;
40048;SDS011;54524;55.740;37.544;2024-02-28T03:04:07;11.1;;;5.4;;
40048;SDS011;54524;55.740;37.544;2024-02-28T03:05:08;11.6;;;5.5;;
40048;SDS011;54524;55.740;37.544;2024-02-28T03:06:09;11.4;;;5.5;;
40048;SDS011;54524;55.740;37.544;2024-02-28T03:07:10;11.9;;;5.6;;
40048;SDS011;54524;55.740;37.544;2024-02-28T03:08:10;10.6;;;6;;
40048;SDS011;54524;55.740;37.544;2024-02-28T03:09:11;10.6;;;6;;
40048;SDS011;54524;55.740;37.544;2024-02-28T03:11:03;12.8;;;5.8;;
40048;SDS011;54524;55.740;37.544;2024-02-28T03:12:07;12.8;;;5.7;;
40048;SDS011;54524;55.740;37.544;2024-02-28T03:13:08;12;;;5.7;;
40048;SDS011;54524;55.740;37.544;2024-02-28T03:14:08;10;;;5.4;;
40048;SDS011;54524;55.740;37.544;2024-02-28T03:15:09;10;;;5.4;;
40048;SDS011;54524;55.740;37.544;2024-02-28T03:16:09;10.2;;;5.5;;
40048;SDS011;54524;55.740;37.544;2024-02-28T03:17:09;10.2;;;5.5;;
40048;SDS011;54524;55.740;37.544;2024-02-28T03:18:10;11.2;;;6.2;;
40048;SDS011;54524;55.740;37.544;2024-02-28T03:19:10;11.3;;;6.3;;
40048;SDS011;54524;55.740;37.544;2024-02-28T03:21:03;13.6;;;7.3;;
40048;SDS011;54524;55.740;37.544;2024-02-28T03:22:04;13.8;;;7.3;;
40048;SDS011;54524;55.740;37.544;2024-02-28T03:23:04;14.3;;;7.3;;
40048;SDS011;54524;55.740;37.544;2024-02-28T03:24:06;14.7;;;7.4;;
40048;SDS011;54524;55.740;37.544;2024-02-28T03:25:07;18.2;;;8.6;;
40048;SDS011;54524;55.740;37.544;2024-02-28T03:26:08;18.1;;;8.7;;
40048;SDS011;54524;55.740;37.544;2024-02-28T03:27:08;18.1;;;8.7;;
40048;SDS011;54524;55.740;37.544;2024-02-28T03:28:09;24.5;;;12.7;;
40048;SDS011;54524;55.740;37.544;2024-02-28T03:29:09;24.3;;;12.6;;
40048;SDS011;54524;55.740;37.544;2024-02-28T03:31:05;12.7;;;6;;
40048;SDS011;54524;55.740;37.544;2024-02-28T03:32:05;12.5;;;6;;
40048;SDS011;54524;55.740;37.544;2024-02-28T03:33:06;12;;;5.9;;
40048;SDS011;54524;55.740;37.544;2024-02-28T03:34:06;19.6;;;10.6;;
40048;SDS011;54524;55.740;37.544;2024-02-28T03:35:08;19.6;;;10.6;;
40048;SDS011;54524;55.740;37.544;2024-02-28T03:36:09;19.6;;;10.8;;
40048;SDS011;54524;55.740;37.544;2024-02-28T03:37:09;19.2;;;10.9;;
40048;SDS011;54524;55.740;37.544;2024-02-28T03:38:10;30.9;;;19;;
40048;SDS011;54524;55.740;37.544;2024-02-28T03:39:10;31.2;;;18.9;;
40048;SDS011;54524;55.740;37.544;2024-02-28T03:41:03;15.8;;;9.2;;
40048;SDS011;54524;55.740;37.544;2024-02-28T03:42:03;16.1;;;9.3;;
40048;SDS011;54524;55.740;37.544;2024-02-28T03:43:04;16.1;;;9.3;;
40048;SDS011;54524;55.740;37.544;2024-02-28T03:44:05;16.4;;;9.4;;
40048;SDS011;54524;55.740;37.544;2024-02-28T03:45:06;28.6;;;16.8;;
40048;SDS011;54524;55.740;37.544;2024-02-28T03:46:06;28.5;;;16.7;;
40048;SDS011;54524;55.740;37.544;2024-02-28T03:47:07;28.1;;;16.6;;
40048;SDS011;54524;55.740;37.544;2024-02-28T03:48:07;32.3;;;18.2;;
40048;SDS011;54524;55.740;37.544;2024-02-28T03:49:08;32.1;;;18;;
40048;SDS011;54524;55.740;37.544;2024-02-28T03:51:03;27.4;;;16.8;;
40048;SDS011;54524;55.740;37.544;2024-02-28T03:52:04;26.9;;;16.7;;
40048;SDS011;54524;55.740;37.544;2024-02-28T03:53:06;26.9;;;16.6;;
40048;SDS011;54524;55.740;37.544;2024-02-28T03:54:06;19.8;;;11.8;;
40048;SDS011;54524;55.740;37.544;2024-02-28T03:55:07;20;;;11.8;;
40048;SDS011;54524;55.740;37.544;2024-02-28T03:56:08;20.1;;;11.9;;
40048;SDS011;54524;55.740;37.544;2024-02-28T03:57:09;26.6;;;14.6;;
40048;SDS011;54524;55.740;37.544;2024-02-28T03:58:09;26.7;;;14.7;;
40048;SDS011;54524;55.740;37.544;2024-02-28T03:59:10;27.1;;;14.8;;
40048;SDS011;54524;55.740;37.544;2024-02-28T04:01:06;25.2;;;14.4;;
40048;SDS011;54524;55.740;37.544;2024-02-28T04:02:06;25.7;;;14.5;;
40048;SDS011;54524;55.740;37.544;2024-02-28T04:03:07;25.5;;;15.6;;
40048;SDS011;54524;55.740;37.544;2024-02-28T04:04:07;25.4;;;15.6;;
40048;SDS011;54524;55.740;37.544;2024-02-28T04:05:08;25.4;;;15.7;;
40048;SDS011;54524;55.740;37.544;2024-02-28T04:06:08;25.4;;;15.7;;
40048;SDS011;54524;55.740;37.544;2024-02-28T04:07:09;37.6;;;22.6;;
40048;SDS011;54524;55.740;37.544;2024-02-28T04:08:09;38;;;22.9;;
40048;SDS011;54524;55.740;37.544;2024-02-28T04:09:10;37.6;;;23.1;;
40048;SDS011;54524;55.740;37.544;2024-02-28T04:11:03;49.1;;;31.5;;
40048;SDS011;54524;55.740;37.544;2024-02-28T04:12:04;49.1;;;31.5;;
40048;SDS011;54524;55.740;37.544;2024-02-28T04:13:04;62.4;;;38.3;;
40048;SDS011;54524;55.740;37.544;2024-02-28T04:14:05;62;;;38.4;;
40048;SDS011;54524;55.740;37.544;2024-02-28T04:15:05;61.7;;;38.3;;
40048;SDS011;54524;55.740;37.544;2024-02-28T04:16:06;40.4;;;24.6;;
40048;SDS011;54524;55.740;37.544;2024-02-28T04:17:07;41;;;24.8;;
40048;SDS011;54524;55.740;37.544;2024-02-28T04:18:07;41.5;;;25;;
40048;SDS011;54524;55.740;37.544;2024-02-28T04:19:08;41.7;;;25.8;;
40048;SDS011;54524;55.740;37.544;2024-02-28T04:21:03;41.6;;;25.7;;
40048;SDS011;54524;55.740;37.544;2024-02-28T04:22:03;41.6;;;25.7;;
40048;SDS011;54524;55.740;37.544;2024-02-28T04:23:04;45.3;;;26.5;;
40048;SDS011;54524;55.740;37.544;2024-02-28T04:24:05;44.8;;;26.1;;
40048;SDS011;54524;55.740;37.544;2024-02-28T04:25:07;43.7;;;25.7;;
40048;SDS011;54524;55.740;37.544;2024-02-28T04:26:08;35.9;;;21.3;;
40048;SDS011;54524;55.740;37.544;2024-02-28T04:27:10;36;;;21.4;;
40048;SDS011;54524;55.740;37.544;2024-02-28T04:28:11;36.1;;;21.7;;
40048;SDS011;54524;55.740;37.544;2024-02-28T04:29:12;40.1;;;23.8;;
40048;SDS011;54524;55.740;37.544;2024-02-28T04:31:05;39.3;;;23.3;;
40048;SDS011;54524;55.740;37.544;2024-02-28T04:32:07;39;;;23.1;;
40048;SDS011;54524;55.740;37.544;2024-02-28T04:33:07;0;;;0;;
40048;SDS011;54524;55.740;37.544;2024-02-28T04:34:08;44.7;;;27.4;;
40048;SDS011;54524;55.740;37.544;2024-02-28T04:35:08;44.4;;;27.6;;
40048;SDS011;54524;55.740;37.544;2024-02-28T04:36:09;16.7;;;8.9;;
40048;SDS011;54524;55.740;37.544;2024-02-28T04:37:10;16.8;;;8.9;;
40048;SDS011;54524;55.740;37.544;2024-02-28T04:38:11;16.7;;;9;;
40048;SDS011;54524;55.740;37.544;2024-02-28T04:39:11;23.5;;;13.8;;
40048;SDS011;54524;55.740;37.544;2024-02-28T04:41:04;22.7;;;13.6;;
40048;SDS011;54524;55.740;37.544;2024-02-28T04:42:04;22.7;;;13.6;;
40048;SDS011;54524;55.740;37.544;2024-02-28T04:43:05;49.8;;;29.7;;
40048;SDS011;54524;55.740;37.544;2024-02-28T04:44:05;49.5;;;29.7;;
40048;SDS011;54524;55.740;37.544;2024-02-28T04:45:06;49.3;;;29.6;;
40048;SDS011;54524;55.740;37.544;2024-02-28T04:46:07;35.8;;;22.2;;
40048;SDS011;54524;55.740;37.544;2024-02-28T04:47:07;35.5;;;22.1;;
40048;SDS011;54524;55.740;37.544;2024-02-28T04:48:08;35.3;;;22;;
40048;SDS011;54524;55.740;37.544;2024-02-28T04:49:08;0;;;0;;
40048;SDS011;54524;55.740;37.544;2024-02-28T04:51:02;37.8;;;23.7;;
40048;SDS011;54524;55.740;37.544;2024-02-28T04:52:03;25;;;15.5;;
40048;SDS011;54524;55.740;37.544;2024-02-28T04:53:04;25;;;15.5;;
40048;SDS011;54524;55.740;37.544;2024-02-28T04:54:04;25;;;15.4;;
40048;SDS011;54524;55.740;37.544;2024-02-28T04:55:05;20.3;;;13.1;;
40048;SDS011;54524;55.740;37.544;2024-02-28T04:56:06;20.1;;;13.1;;
40048;SDS011;54524;55.740;37.544;2024-02-28T04:57:06;20;;;13.1;;
40048;SDS011;54524;55.740;37.544;2024-02-28T04:58:07;22.5;;;12.7;;
40048;SDS011;54524;55.740;37.544;2024-02-28T04:59:07;23;;;12.7;;
40048;SDS011;54524;55.740;37.544;2024-02-28T05:01:04;16.9;;;10.1;;
40048;SDS011;54524;55.740;37.544;2024-02-28T05:02:05;17.4;;;10.3;;
40048;SDS011;54524;55.740;37.544;2024-02-28T05:03:06;17.8;;;10.3;;
40048;SDS011;54524;55.740;37.544;2024-02-28T05:04:06;20.8;;;11.9;;
40048;SDS011;54524;55.740;37.544;2024-02-28T05:05:07;20.9;;;12;;
40048;SDS011;54524;55.740;37.544;2024-02-28T05:06:07;20.9;;;12;;
40048;SDS011;54524;55.740;37.544;2024-02-28T05:07:08;19.5;;;12.7;;
40048;SDS011;54524;55.740;37.544;2024-02-28T05:08:09;19.3;;;12.5;;
40048;SDS011;54524;55.740;37.544;2024-02-28T05:09:09;19.3;;;12.2;;
40048;SDS011;54524;55.740;37.544;2024-02-28T05:11:03;26.5;;;15.3;;
40048;SDS011;54524;55.740;37.544;2024-02-28T05:12:04;27.2;;;15.4;;
40048;SDS011;54524;55.740;37.544;2024-02-28T05:13:04;19.1;;;10;;
40048;SDS011;54524;55.740;37.544;2024-02-28T05:14:05;19;;;10;;
40048;SDS011;54524;55.740;37.544;2024-02-28T05:15:05;19.5;;;10.1;;
40048;SDS011;54524;55.740;37.544;2024-02-28T05:16:12;19.7;;;10.2;;
40048;SDS011;54524;55.740;37.544;2024-02-28T05:17:13;17.1;;;8.5;;
40048;SDS011;54524;55.740;37.544;2024-02-28T05:18:13;16.1;;;8.5;;
40048;SDS011;54524;55.740;37.544;2024-02-28T05:19:14;16.3;;;8.6;;
40048;SDS011;54524;55.740;37.544;2024-02-28T05:21:03;24.1;;;12.8;;
40048;SDS011;54524;55.740;37.544;2024-02-28T05:22:04;23.8;;;12.5;;
40048;SDS011;54524;55.740;37.544;2024-02-28T05:23:04;23.3;;;12.3;;
40048;SDS011;54524;55.740;37.544;2024-02-28T05:24:05;23.3;;;12.3;;
40048;SDS011;54524;55.740;37.544;2024-02-28T05:25:06;19.3;;;10.7;;
40048;SDS011;54524;55.740;37.544;2024-02-28T05:26:06;19.2;;;10.9;;
40048;SDS011;54524;55.740;37.544;2024-02-28T05:27:07;0;;;0;;
40048;SDS011;54524;55.740;37.544;2024-02-28T05:28:07;22.8;;;12.1;;
40048;SDS011;54524;55.740;37.544;2024-02-28T05:29:08;23.4;;;12.1;;
40048;SDS011;54524;55.740;37.544;2024-02-28T05:31:03;32.2;;;18.7;;
40048;SDS011;54524;55.740;37.544;2024-02-28T05:32:19;32.2;;;18.7;;
40048;SDS011;54524;55.740;37.544;2024-02-28T05:33:21;17.6;;;8.9;;
40048;SDS011;54524;55.740;37.544;2024-02-28T05:34:21;17.4;;;8.9;;
40048;SDS011;54524;55.740;37.544;2024-02-28T05:35:22;17.5;;;8.8;;
40048;SDS011;54524;55.740;37.544;2024-02-28T05:36:23;15.3;;;8.7;;
40048;SDS011;54524;55.740;37.544;2024-02-28T05:37:24;15.1;;;8.8;;
40048;SDS011;54524;55.740;37.544;2024-02-28T05:38:25;15.2;;;8.9;;
40048;SDS011;54524;55.740;37.544;2024-02-28T05:39:25;18.6;;;11.3;;
40048;SDS011;54524;55.740;37.544;2024-02-28T05:41:03;18.5;;;11.3;;
40048;SDS011;54524;55.740;37.544;2024-02-28T05:42:04;18.4;;;11.3;;
40048;SDS011;54524;55.740;37.544;2024-02-28T05:43:04;14.1;;;8.8;;
40048;SDS011;54524;55.740;37.544;2024-02-28T05:44:04;14.1;;;8.7;;
40048;SDS011;54524;55.740;37.544;2024-02-28T05:45:05;14.9;;;8.7;;
40048;SDS011;54524;55.740;37.544;2024-02-28T05:46:06;27.4;;;15.8;;
40048;SDS011;54524;55.740;37.544;2024-02-28T05:47:07;27.5;;;15.8;;
40048;SDS011;54524;55.740;37.544;2024-02-28T05:48:07;27.5;;;15.9;;
40048;SDS011;54524;55.740;37.544;2024-02-28T05:49:08;28.5;;;16.4;;
40048;SDS011;54524;55.740;37.544;2024-02-28T05:51:03;28.1;;;16.1;;
40048;SDS011;54524;55.740;37.544;2024-02-28T05:52:04;29;;;16;;
40048;SDS011;54524;55.740;37.544;2024-02-28T05:53:05;28.9;;;16;;
40048;SDS011;54524;55.740;37.544;2024-02-28T05:54:05;28.8;;;16.1;;
40048;SDS011;54524;55.740;37.544;2024-02-28T05:55:06;33.3;;;19;;
40048;SDS011;54524;55.740;37.544;2024-02-28T05:56:07;33.2;;;18.9;;
40048;SDS011;54524;55.740;37.544;2024-02-28T05:57:13;33.8;;;19.1;;
40048;SDS011;54524;55.740;37.544;2024-02-28T05:58:14;46.4;;;28.3;;
40048;SDS011;54524;55.740;37.544;2024-02-28T05:59:16;45.4;;;28;;
40048;SDS011;54524;55.740;37.544;2024-02-28T06:01:04;17.2;;;9.2;;
40048;SDS011;54524;55.740;37.544;2024-02-28T06:02:05;17.3;;;9.2;;
40048;SDS011;54524;55.740;37.544;2024-02-28T06:03:05;17.4;;;9.2;;
40048;SDS011;54524;55.740;37.544;2024-02-28T06:04:06;17.5;;;9.2;;
40048;SDS011;54524;55.740;37.544;2024-02-28T06:05:06;20.1;;;10.9;;
40048;SDS011;54524;55.740;37.544;2024-02-28T06:06:07;20.3;;;11;;
40048;SDS011;54524;55.740;37.544;2024-02-28T06:07:07;17;;;9.4;;
40048;SDS011;54524;55.740;37.544;2024-02-28T06:08:08;16.8;;;9.4;;
40048;SDS011;54524;55.740;37.544;2024-02-28T06:09:08;16.8;;;9.4;;
40048;SDS011;54524;55.740;37.544;2024-02-28T06:11:03;19.3;;;11.1;;
40048;SDS011;54524;55.740;37.544;2024-02-28T06:12:04;19.7;;;11.2;;
40048;SDS011;54524;55.740;37.544;2024-02-28T06:13:04;19.6;;;11.1;;
40048;SDS011;54524;55.740;37.544;2024-02-28T06:14:05;17.6;;;8.7;;
40048;SDS011;54524;55.740;37.544;2024-02-28T06:15:05;17.4;;;8.6;;
40048;SDS011;54524;55.740;37.544;2024-02-28T06:16:06;17.3;;;8.6;;
40048;SDS011;54524;55.740;37.544;2024-02-28T06:17:07;12.2;;;6.4;;
40048;SDS011;54524;55.740;37.544;2024-02-28T06:18:07;12.3;;;6.5;;
40048;SDS011;54524;55.740;37.544;2024-02-28T06:19:07;13.1;;;6.5;;
40048;SDS011;54524;55.740;37.544;2024-02-28T06:21:04;13.7;;;6.3;;
40048;SDS011;54524;55.740;37.544;2024-02-28T06:22:04;13.4;;;6.3;;
40048;SDS011;54524;55.740;37.544;2024-02-28T06:23:05;13.7;;;7.6;;
40048;SDS011;54524;55.740;37.544;2024-02-28T06:24:05;13.7;;;7.5;;
40048;SDS011;54524;55.740;37.544;2024-02-28T06:25:06;13.2;;;7.3;;
40048;SDS011;54524;55.740;37.544;2024-02-28T06:26:11;12.4;;;6.4;;
40048;SDS011;54524;55.740;37.544;2024-02-28T06:27:16;12.6;;;6.4;;
40048;SDS011;54524;55.740;37.544;2024-02-28T06:28:17;12.4;;;6.4;;
40048;SDS011;54524;55.740;37.544;2024-02-28T06:29:17;13.7;;;7.8;;
40048;SDS011;54524;55.740;37.544;2024-02-28T06:31:04;13.8;;;7.7;;
40048;SDS011;54524;55.740;37.544;2024-02-28T06:32:05;13.6;;;7.6;;
40048;SDS011;54524;55.740;37.544;2024-02-28T06:33:05;12.5;;;5.9;;
40048;SDS011;54524;55.740;37.544;2024-02-28T06:34:06;13;;;6;;
40048;SDS011;54524;55.740;37.544;2024-02-28T06:35:07;13;;;6;;
40048;SDS011;54524;55.740;37.544;2024-02-28T06:36:07;11.3;;;6;;
40048;SDS011;54524;55.740;37.544;2024-02-28T06:37:08;11.3;;;6;;
40048;SDS011;54524;55.740;37.544;2024-02-28T06:38:09;11.4;;;6.1;;
40048;SDS011;54524;55.740;37.544;2024-02-28T06:39:09;12.6;;;6.1;;
40048;SDS011;54524;55.740;37.544;2024-02-28T06:41:03;12.3;;;6.1;;
40048;SDS011;54524;55.740;37.544;2024-02-28T06:42:04;17.2;;;7.1;;
40048;SDS011;54524;55.740;37.544;2024-02-28T06:43:05;17;;;7;;
40048;SDS011;54524;55.740;37.544;2024-02-28T06:44:06;16.6;;;7;;